Time;durP1;ratioP1;P1;durP2;ratioP2;P2;SDS_P1;SDS_P2;PMS_P1;PMS_P2;Temp;Humidity;BMP_temperature;BMP_pressure;BME280_temperature;BME280_humidity;BME280_pressure;Samples;Min_cycle;Max_cycle;Signal;HPM_P1;HPM_P2
2020/12/23 00:02:10;;;;;;;2.83;0.57;;;26.20;94.90;;;;;;5072653;28;20063;-68
2020/12/23 00:04:38;;;;;;;0.82;0.40;;;26.00;94.40;;;;;;5072711;28;20032;-65
2020/12/23 00:07:14;;;;;;;2.15;0.45;;;26.20;94.50;;;;;;5072342;28;20107;-66
2020/12/23 00:09:46;;;;;;;4.60;0.80;;;26.10;94.00;;;;;;5072332;28;20020;-65
2020/12/23 00:12:14;;;;;;;1.45;0.40;;;26.20;94.10;;;;;;5072434;28;20438;-63
2020/12/23 00:14:41;;;;;;;2.95;0.57;;;26.60;94.50;;;;;;5072362;28;20056;-64
2020/12/23 00:17:10;;;;;;;1.80;0.45;;;26.40;94.00;;;;;;5070454;28;20074;-63
2020/12/23 00:19:38;;;;;;;0.80;0.43;;;26.30;94.30;;;;;;5072100;28;20040;-65
2020/12/23 00:22:07;;;;;;;0.73;0.50;;;26.10;94.40;;;;;;5072545;28;20421;-64
2020/12/23 00:24:35;;;;;;;3.80;0.40;;;26.20;94.40;;;;;;5072655;28;20426;-63
2020/12/23 00:27:02;;;;;;;2.47;0.38;;;26.30;94.40;;;;;;5072727;28;20024;-63
2020/12/23 00:29:30;;;;;;;1.30;0.50;;;26.80;94.10;;;;;;5072202;28;20035;-65
2020/12/23 00:31:58;;;;;;;8.13;7.80;;;26.90;93.70;;;;;;5072745;28;20033;-65
2020/12/23 00:34:27;;;;;;;4.95;4.60;;;27.10;93.50;;;;;;5072568;28;20369;-65
2020/12/23 00:36:59;;;;;;;1.45;0.73;;;27.20;92.40;;;;;;5072240;28;20020;-63
2020/12/23 00:39:28;;;;;;;0.60;0.30;;;27.00;93.50;;;;;;5072119;28;20525;-60
2020/12/23 00:41:56;;;;;;;10.43;9.77;;;27.10;93.40;;;;;;5071981;28;20048;-64
2020/12/23 00:44:24;;;;;;;10.02;9.45;;;27.10;92.90;;;;;;5072363;28;20387;-63
2020/12/23 00:46:53;;;;;;;1.70;0.40;;;27.30;93.00;;;;;;5072762;28;20481;-63
2020/12/23 00:49:21;;;;;;;1.65;0.45;;;27.40;93.80;;;;;;5076059;28;20098;-65
2020/12/23 00:51:52;;;;;;;1.95;0.52;;;27.60;92.40;;;;;;5076040;28;20059;-64
2020/12/23 00:54:19;;;;;;;;;;;27.50;92.70;;;;;;5076722;28;20384;-64
2020/12/23 00:56:47;;;;;;;2.28;0.40;;;27.70;93.40;;;;;;5075584;28;19954;-64
2020/12/23 00:59:15;;;;;;;1.75;0.30;;;28.10;93.30;;;;;;5075673;28;20100;-65
2020/12/23 01:01:43;;;;;;;1.65;0.50;;;28.00;94.00;;;;;;5075845;28;20495;-62
2020/12/23 01:04:11;;;;;;;1.63;0.38;;;28.20;92.40;;;;;;5075921;28;20028;-63
2020/12/23 01:06:39;;;;;;;0.98;0.32;;;28.10;92.90;;;;;;5075802;28;20107;-64
2020/12/23 01:09:07;;;;;;;2.50;0.50;;;28.10;92.90;;;;;;5075789;28;20056;-66
2020/12/23 01:11:35;;;;;;;1.10;0.57;;;28.10;93.10;;;;;;5075767;28;20024;-66
2020/12/23 01:14:03;;;;;;;2.22;0.52;;;28.10;92.30;;;;;;5075461;28;20509;-66
2020/12/23 01:16:31;;;;;;;4.22;0.50;;;27.90;92.60;;;;;;5075675;28;20024;-65
2020/12/23 01:18:59;;;;;;;1.10;0.60;;;28.00;92.40;;;;;;5075116;28;20040;-65
2020/12/23 01:21:27;;;;;;;1.45;0.38;;;28.10;92.60;;;;;;5075227;28;20112;-64
2020/12/23 01:23:55;;;;;;;1.95;0.45;;;28.00;92.90;;;;;;5075272;28;20027;-64
2020/12/23 01:26:23;;;;;;;2.08;0.30;;;28.00;92.90;;;;;;5075489;28;20343;-64
2020/12/23 01:28:51;;;;;;;1.83;0.50;;;27.60;91.90;;;;;;5075077;28;20028;-65
2020/12/23 01:31:19;;;;;;;1.70;0.55;;;27.70;93.80;;;;;;5075046;28;20046;-64
2020/12/23 01:33:48;;;;;;;2.00;0.55;;;28.00;92.30;;;;;;5074960;28;20029;-63
2020/12/23 01:36:16;;;;;;;2.47;0.90;;;28.00;92.40;;;;;;5075265;28;20075;-63
2020/12/23 01:38:44;;;;;;;3.50;0.57;;;28.10;92.50;;;;;;5074873;28;20032;-63
2020/12/23 01:41:12;;;;;;;3.63;0.88;;;28.40;92.30;;;;;;5075227;28;20385;-66
2020/12/23 01:43:41;;;;;;;2.00;0.60;;;28.30;92.40;;;;;;5075038;28;20017;-62
2020/12/23 01:46:09;;;;;;;1.67;0.60;;;28.10;92.70;;;;;;5074706;28;20056;-65
2020/12/23 01:48:38;;;;;;;3.75;1.08;;;28.10;93.40;;;;;;5073872;28;20535;-61
2020/12/23 01:51:06;;;;;;;3.42;0.60;;;28.40;93.00;;;;;;5074677;28;20130;-63
2020/12/23 01:53:34;;;;;;;4.25;0.80;;;28.60;93.20;;;;;;5074712;28;20048;-63
2020/12/23 01:56:03;;;;;;;2.22;0.60;;;28.50;93.00;;;;;;5074694;28;20468;-63
2020/12/23 01:58:31;;;;;;;2.42;0.70;;;28.60;92.90;;;;;;5074180;28;20388;-62
2020/12/23 02:01:00;;;;;;;2.17;0.52;;;28.70;93.00;;;;;;5073389;28;20358;-63
2020/12/23 02:03:28;;;;;;;2.28;0.68;;;28.40;93.80;;;;;;5074361;28;20016;-63
2020/12/23 02:05:58;;;;;;;4.72;0.82;;;28.50;93.50;;;;;;5056462;28;20029;-64
2020/12/23 02:08:27;;;;;;;5.30;0.68;;;28.40;92.80;;;;;;5074852;28;20021;-63
2020/12/23 02:10:55;;;;;;;1.80;0.50;;;28.10;93.40;;;;;;5075200;28;20024;-63
2020/12/23 02:13:44;;;;;;;3.42;0.77;;;27.90;93.40;;;;;;5074986;28;20365;-62
2020/12/23 02:16:13;;;;;;;2.40;0.75;;;27.70;93.90;;;;;;5052717;28;20572;-63
2020/12/23 02:18:43;;;;;;;2.90;0.75;;;27.60;93.40;;;;;;5035614;28;20091;-64
2020/12/23 02:21:10;;;;;;;;;;;27.40;94.00;;;;;;5052787;28;20029;-64
2020/12/23 02:23:39;;;;;;;7.65;1.33;;;27.30;95.10;;;;;;5035183;28;19912;-64
2020/12/23 02:26:07;;;;;;;3.30;0.88;;;27.30;94.10;;;;;;5052142;28;20462;-64
2020/12/23 02:28:35;;;;;;;4.18;1.00;;;27.30;94.60;;;;;;5051802;28;20036;-64
2020/12/23 02:31:05;;;;;;;2.95;0.68;;;27.60;95.10;;;;;;5012030;28;20081;-63
2020/12/23 02:33:33;;;;;;;3.53;0.80;;;27.70;93.70;;;;;;5012124;28;20121;-63
2020/12/23 02:36:01;;;;;;;3.40;0.70;;;27.70;94.60;;;;;;5011987;28;20060;-64
2020/12/23 02:38:29;;;;;;;3.22;0.70;;;27.60;93.80;;;;;;5011928;28;20026;-64
2020/12/23 02:40:57;;;;;;;3.42;0.90;;;27.80;94.10;;;;;;5012175;28;20038;-63
2020/12/23 02:43:26;;;;;;;4.13;0.88;;;27.60;94.10;;;;;;5012027;28;20030;-65
2020/12/23 02:45:54;;;;;;;2.60;0.60;;;27.30;94.20;;;;;;5012158;28;20034;-64
2020/12/23 02:48:23;;;;;;;4.47;0.93;;;27.30;95.00;;;;;;5051588;28;20021;-63
2020/12/23 02:50:52;;;;;;;4.93;1.02;;;27.40;95.00;;;;;;5051344;28;20500;-64
2020/12/23 02:53:20;;;;;;;1.80;0.55;;;27.50;94.60;;;;;;5051606;28;20029;-63
2020/12/23 02:55:48;;;;;;;2.00;0.73;;;27.60;94.20;;;;;;5051338;28;20044;-64
2020/12/23 02:58:17;;;;;;;2.55;0.68;;;27.80;93.60;;;;;;5051394;28;20453;-64
2020/12/23 03:00:45;;;;;;;2.47;0.80;;;28.00;93.90;;;;;;5018704;28;20135;-65
2020/12/23 03:03:15;;;;;;;3.75;0.73;;;27.90;93.80;;;;;;5072911;28;20040;-65
2020/12/23 03:05:44;;;;;;;1.95;0.63;;;28.00;93.10;;;;;;5073916;28;20074;-64
2020/12/23 03:08:11;;;;;;;2.95;0.57;;;27.90;93.40;;;;;;5073794;28;20477;-66
2020/12/23 03:10:40;;;;;;;3.05;0.85;;;27.80;93.90;;;;;;5073407;28;20107;-63
2020/12/23 03:13:08;;;;;;;5.03;1.08;;;27.70;93.40;;;;;;5073357;28;20043;-64
2020/12/23 03:15:36;;;;;;;2.40;0.80;;;27.50;93.20;;;;;;5072970;28;20021;-63
2020/12/23 03:18:04;;;;;;;2.47;1.02;;;27.70;93.00;;;;;;5073087;28;20518;-64
2020/12/23 03:20:33;;;;;;;1.20;0.43;;;27.60;93.10;;;;;;5073294;28;20036;-63
2020/12/23 03:23:01;;;;;;;3.45;0.60;;;27.60;93.30;;;;;;5073115;28;20024;-64
2020/12/23 03:25:29;;;;;;;2.17;0.55;;;27.60;93.20;;;;;;5073130;28;20020;-64
2020/12/23 03:27:57;;;;;;;1.20;0.50;;;27.70;93.30;;;;;;5073179;28;20028;-64
2020/12/23 03:30:26;;;;;;;1.95;0.50;;;27.90;92.10;;;;;;5072991;28;20484;-63
2020/12/23 03:32:54;;;;;;;3.60;0.80;;;27.80;93.10;;;;;;5072902;28;20365;-62
2020/12/23 03:35:23;;;;;;;2.58;0.85;;;27.50;93.30;;;;;;5073041;28;20476;-62
2020/12/23 03:37:51;;;;;;;2.35;0.55;;;27.30;92.90;;;;;;5072778;28;20024;-63
2020/12/23 03:40:19;;;;;;;3.10;0.70;;;27.40;93.60;;;;;;5073244;28;20024;-62
2020/12/23 03:42:47;;;;;;;5.78;0.93;;;27.70;93.20;;;;;;5073271;28;20032;-62
2020/12/23 03:45:15;;;;;;;3.30;0.80;;;27.50;93.20;;;;;;5072743;28;20023;-64
2020/12/23 03:47:43;;;;;;;3.90;0.88;;;27.60;94.60;;;;;;5073218;28;20469;-62
2020/12/23 03:50:11;;;;;;;3.78;0.93;;;27.80;93.50;;;;;;5073444;28;20021;-63
2020/12/23 03:52:40;;;;;;;3.10;0.77;;;27.50;93.70;;;;;;5073267;28;20457;-62
2020/12/23 03:55:10;;;;;;;2.67;0.77;;;27.70;93.70;;;;;;5072711;28;20025;-62
2020/12/23 03:57:39;;;;;;;4.80;0.90;;;28.00;93.80;;;;;;5072777;28;20024;-64
2020/12/23 04:00:09;;;;;;;4.95;0.73;;;27.80;94.10;;;;;;5072949;28;20082;-64
2020/12/23 04:02:37;;;;;;;5.93;1.20;;;27.90;94.60;;;;;;5073248;28;20052;-63
2020/12/23 04:05:07;;;;;;;6.35;0.93;;;27.90;95.10;;;;;;5073359;28;20021;-64
2020/12/23 04:07:35;;;;;;;4.03;0.60;;;27.90;94.10;;;;;;5073439;28;20074;-65
2020/12/23 04:10:06;;;;;;;2.20;0.88;;;27.80;95.20;;;;;;5072480;28;20362;-64
2020/12/23 04:12:38;;;;;;;3.22;1.00;;;27.80;93.30;;;;;;5072720;28;20085;-64
2020/12/23 04:15:09;;;;;;;4.15;0.95;;;27.90;94.00;;;;;;5073373;28;20028;-64
2020/12/23 04:17:37;;;;;;;4.13;1.00;;;27.90;93.70;;;;;;5072972;28;20040;-64
2020/12/23 04:20:08;;;;;;;4.47;0.80;;;27.80;94.30;;;;;;5072817;28;20094;-64
2020/12/23 04:22:37;;;;;;;3.88;0.77;;;27.90;93.70;;;;;;5074961;28;20021;-65
2020/12/23 04:25:08;;;;;;;3.70;0.70;;;28.10;94.00;;;;;;5076759;28;20066;-64
2020/12/23 04:27:37;;;;;;;3.47;0.70;;;28.30;92.50;;;;;;5076941;28;20028;-64
2020/12/23 04:30:07;;;;;;;5.68;0.80;;;27.90;92.30;;;;;;5076502;28;20027;-63
2020/12/23 04:32:35;;;;;;;4.03;0.55;;;27.90;92.30;;;;;;5076684;28;20115;-64
2020/12/23 04:35:05;;;;;;;2.00;0.40;;;27.70;92.40;;;;;;5076666;28;20107;-64
2020/12/23 04:37:34;;;;;;;2.15;0.50;;;27.60;92.00;;;;;;5076204;28;20031;-63
2020/12/23 04:40:04;;;;;;;3.47;0.60;;;27.70;91.90;;;;;;5076493;28;20097;-63
2020/12/23 04:42:33;;;;;;;4.57;0.90;;;27.90;92.20;;;;;;5076312;28;20138;-63
2020/12/23 04:45:03;;;;;;;2.80;0.50;;;28.00;93.10;;;;;;5091466;28;20028;-63
2020/12/23 04:47:32;;;;;;;;;;;28.00;91.90;;;;;;5076965;28;20028;-64
2020/12/23 04:50:00;;;;;;;3.15;0.75;;;28.00;92.30;;;;;;5076261;28;19904;-64
2020/12/23 04:52:35;;;;;;;4.53;1.25;;;28.10;93.20;;;;;;5076677;28;20542;-64
2020/12/23 04:55:06;;;;;;;4.43;0.90;;;28.20;94.00;;;;;;5076569;28;20028;-64
2020/12/23 04:57:39;;;;;;;2.88;0.80;;;28.40;92.20;;;;;;5076338;28;20120;-63
2020/12/23 05:00:08;;;;;;;3.97;1.00;;;28.30;92.30;;;;;;5076283;28;20024;-63
2020/12/23 05:02:36;;;;;;;2.60;0.77;;;27.90;91.60;;;;;;5076109;28;20112;-63
2020/12/23 05:05:05;;;;;;;4.63;0.82;;;27.70;90.70;;;;;;5075928;28;20016;-63
2020/12/23 05:07:33;;;;;;;4.47;0.90;;;27.40;91.00;;;;;;5076045;28;20017;-63
2020/12/23 05:10:06;;;;;;;5.20;1.20;;;27.50;91.80;;;;;;5076015;28;20021;-64
2020/12/23 05:12:34;;;;;;;3.92;0.93;;;27.50;91.50;;;;;;5076259;28;20032;-63
2020/12/23 05:15:08;;;;;;;4.00;1.20;;;27.30;91.80;;;;;;5075760;28;20036;-63
2020/12/23 05:17:37;;;;;;;5.28;0.80;;;27.30;92.40;;;;;;5076018;28;20430;-63
2020/12/23 05:20:08;;;;;;;4.20;1.13;;;27.40;92.40;;;;;;5057292;28;20041;-63
2020/12/23 05:22:37;;;;;;;5.68;0.90;;;27.40;92.50;;;;;;5074046;28;20028;-63
2020/12/23 05:25:06;;;;;;;5.97;0.77;;;27.60;92.30;;;;;;5075551;28;20408;-63
2020/12/23 05:27:34;;;;;;;3.60;0.88;;;27.60;91.50;;;;;;5075547;28;20021;-62
2020/12/23 05:30:03;;;;;;;3.63;0.63;;;27.60;91.50;;;;;;5056957;28;20059;-63
2020/12/23 05:32:36;;;;;;;5.63;1.02;;;27.60;91.10;;;;;;5074961;28;20068;-63
2020/12/23 05:35:05;;;;;;;3.55;0.70;;;27.50;91.30;;;;;;5074030;28;20504;-63
2020/12/23 05:37:33;;;;;;;6.32;0.85;;;27.80;90.80;;;;;;5075285;28;20052;-63
2020/12/23 05:40:02;;;;;;;3.88;0.82;;;27.70;91.30;;;;;;5075429;28;20121;-63
2020/12/23 05:42:31;;;;;;;2.85;0.55;;;27.50;90.90;;;;;;5075124;28;20074;-63
2020/12/23 05:44:59;;;;;;;3.80;1.00;;;27.70;90.70;;;;;;5074976;28;20024;-63
2020/12/23 05:47:29;;;;;;;4.90;0.70;;;28.10;91.10;;;;;;5056942;28;20040;-62
2020/12/23 05:49:57;;;;;;;3.92;0.77;;;27.80;91.70;;;;;;5075215;28;20099;-62
2020/12/23 05:52:26;;;;;;;4.72;1.10;;;27.90;91.20;;;;;;5075467;28;20480;-63
2020/12/23 05:54:55;;;;;;;4.05;1.05;;;28.10;90.60;;;;;;5074260;28;20439;-63
2020/12/23 05:57:25;;;;;;;4.78;0.88;;;27.90;90.50;;;;;;5073539;28;20464;-63
2020/12/23 05:59:55;;;;;;;5.97;1.27;;;28.10;91.40;;;;;;5074566;28;20029;-64
2020/12/23 06:02:25;;;;;;;3.67;0.77;;;28.10;91.10;;;;;;5074522;28;20051;-63
2020/12/23 06:04:54;;;;;;;;;;;27.90;90.70;;;;;;5075222;28;20024;-64
2020/12/23 06:07:32;;;;;;;4.38;1.15;;;28.10;91.70;;;;;;5073123;28;20284;-65
2020/12/23 06:10:02;;;;;;;7.05;1.13;;;27.90;92.20;;;;;;5074584;28;20021;-64
2020/12/23 06:12:35;;;;;;;4.72;1.20;;;27.90;92.00;;;;;;5074713;28;20027;-64
2020/12/23 06:15:07;;;;;;;3.78;1.33;;;27.80;91.10;;;;;;5074481;28;20024;-64
2020/12/23 06:17:40;;;;;;;5.38;1.02;;;27.80;91.90;;;;;;5074746;28;20054;-64
2020/12/23 06:20:11;;;;;;;5.70;2.03;;;27.70;92.50;;;;;;5073991;28;20083;-64
2020/12/23 06:22:41;;;;;;;5.95;2.10;;;27.80;92.60;;;;;;5074265;28;20465;-63
2020/12/23 06:25:10;;;;;;;8.13;1.00;;;27.70;92.80;;;;;;5073938;28;20024;-65
2020/12/23 06:27:42;;;;;;;5.50;1.10;;;27.70;92.50;;;;;;5074439;28;20052;-65
2020/12/23 06:30:10;;;;;;;7.40;1.20;;;27.80;92.80;;;;;;5073212;28;20021;-63
2020/12/23 06:32:39;;;;;;;5.82;1.05;;;27.50;92.70;;;;;;5074664;28;20449;-63
2020/12/23 06:35:07;;;;;;;5.00;0.80;;;27.40;93.10;;;;;;5073730;28;20472;-64
2020/12/23 06:37:37;;;;;;;5.70;0.93;;;26.90;93.20;;;;;;5073990;28;20381;-66
2020/12/23 06:40:12;;;;;;;5.43;1.15;;;27.00;93.60;;;;;;5073992;28;20433;-64
2020/12/23 06:42:51;;;;;;;5.43;1.10;;;27.00;94.20;;;;;;5073682;28;20028;-64
2020/12/23 06:45:20;;;;;;;5.88;1.23;;;27.30;94.80;;;;;;5073225;28;20048;-63
2020/12/23 06:47:48;;;;;;;6.03;1.52;;;27.50;94.00;;;;;;5073757;28;20495;-64
2020/12/23 06:50:31;;;;;;;7.55;1.15;;;27.50;94.80;;;;;;5073699;28;20097;-64
2020/12/23 06:52:59;;;;;;;5.90;1.10;;;27.60;94.90;;;;;;5073480;28;20031;-64
2020/12/23 06:55:47;;;;;;;7.07;1.20;;;27.60;95.30;;;;;;5072097;28;20431;-64
2020/12/23 06:58:39;;;;;;;10.52;1.58;;;27.20;95.60;;;;;;5051095;28;20371;-64
2020/12/23 07:01:20;;;;;;;6.55;1.42;;;27.20;96.30;;;;;;5014537;28;20132;-64
2020/12/23 07:03:49;;;;;;;10.25;1.70;;;27.40;96.30;;;;;;5031247;28;20132;-63
2020/12/23 07:06:36;;;;;;;8.38;1.75;;;27.40;96.70;;;;;;5015157;28;20375;-63
2020/12/23 07:09:06;;;;;;;8.55;1.58;;;27.60;96.50;;;;;;5011353;28;20034;-62
2020/12/23 07:11:37;;;;;;;6.82;1.48;;;27.50;96.70;;;;;;5011305;28;20041;-63
2020/12/23 07:14:06;;;;;;;7.80;1.63;;;27.20;96.20;;;;;;5011247;28;20084;-65
2020/12/23 07:16:41;;;;;;;9.13;1.58;;;27.00;96.40;;;;;;4994939;28;20045;-64
2020/12/23 07:19:10;;;;;;;8.88;1.50;;;26.80;96.80;;;;;;5011123;28;20077;-64
2020/12/23 07:21:39;;;;;;;5.95;1.00;;;26.40;97.80;;;;;;5011219;28;20499;-64
2020/12/23 07:24:16;;;;;;;7.13;1.38;;;25.80;98.20;;;;;;5011407;28;20489;-64
2020/12/23 07:26:46;;;;;;;9.48;1.30;;;25.30;98.80;;;;;;5011130;28;20117;-63
2020/12/23 07:29:16;;;;;;;13.30;1.77;;;24.80;99.20;;;;;;5021515;28;20025;-63
2020/12/23 07:31:45;;;;;;;6.18;1.35;;;24.50;99.90;;;;;;5022213;28;20037;-64
2020/12/23 07:34:13;;;;;;;7.25;1.30;;;24.40;99.90;;;;;;5050777;28;20124;-63
2020/12/23 07:36:42;;;;;;;7.05;1.52;;;24.20;99.90;;;;;;5050701;28;20028;-63
2020/12/23 07:39:10;;;;;;;9.88;1.30;;;24.00;99.90;;;;;;5037276;28;20039;-63
2020/12/23 07:41:38;;;;;;;8.20;1.75;;;23.90;99.90;;;;;;5072543;28;20024;-63
2020/12/23 07:44:12;;;;;;;6.05;1.60;;;23.90;99.90;;;;;;5072988;28;20469;-63
2020/12/23 07:46:40;;;;;;;8.13;1.40;;;23.80;99.90;;;;;;5072779;28;20017;-63
2020/12/23 07:49:09;;;;;;;6.25;0.95;;;23.60;99.90;;;;;;5072614;28;20063;-63
2020/12/23 07:51:39;;;;;;;6.13;1.10;;;23.40;99.90;;;;;;5071803;28;20025;-63
2020/12/23 07:54:14;;;;;;;7.43;1.52;;;23.20;99.90;;;;;;5072623;28;20028;-63
2020/12/23 07:56:43;;;;;;;6.53;1.60;;;23.20;99.90;;;;;;5071840;28;20074;-63
2020/12/23 07:59:11;;;;;;;6.72;1.08;;;23.10;99.90;;;;;;5054253;28;20044;-63
2020/12/23 08:01:41;;;;;;;9.02;1.73;;;23.00;99.90;;;;;;5072702;28;20052;-63
2020/12/23 08:04:09;;;;;;;;;;;23.00;99.90;;;;;;5072902;28;20110;-63
2020/12/23 08:06:37;;;;;;;11.02;4.13;;;22.90;99.90;;;;;;5072489;28;20011;-63
2020/12/23 08:09:11;;;;;;;11.48;2.50;;;22.70;99.90;;;;;;5072791;28;20028;-64
2020/12/23 08:11:40;;;;;;;8.35;2.33;;;22.60;99.90;;;;;;5072549;28;20032;-63
2020/12/23 08:14:08;;;;;;;8.35;1.65;;;22.50;99.90;;;;;;5072713;28;20021;-64
2020/12/23 08:16:36;;;;;;;6.45;2.17;;;22.50;99.90;;;;;;5072721;28;20021;-62
2020/12/23 08:19:03;;;;;;;8.77;2.63;;;22.40;99.90;;;;;;5072251;28;20090;-63
2020/12/23 08:21:31;;;;;;;10.57;4.15;;;22.30;99.90;;;;;;5072325;28;20056;-63
2020/12/23 08:23:59;;;;;;;9.13;2.42;;;22.20;99.90;;;;;;5072362;28;20025;-62
2020/12/23 08:26:27;;;;;;;9.13;2.03;;;22.20;99.90;;;;;;5072677;28;20021;-64
2020/12/23 08:28:56;;;;;;;8.43;2.10;;;22.20;99.90;;;;;;5072801;28;20024;-61
2020/12/23 08:31:31;;;;;;;14.07;2.88;;;22.10;99.90;;;;;;5072307;28;20029;-63
2020/12/23 08:34:02;;;;;;;7.43;1.70;;;22.00;99.90;;;;;;5071092;28;20481;-63
2020/12/23 08:36:31;;;;;;;7.93;1.58;;;22.00;99.90;;;;;;5072749;28;20074;-63
2020/12/23 08:38:59;;;;;;;11.43;1.73;;;21.90;99.90;;;;;;5072480;28;20021;-63
2020/12/23 08:41:30;;;;;;;12.32;11.05;;;21.80;99.90;;;;;;5072590;28;20031;-63
2020/12/23 08:43:59;;;;;;;11.35;10.15;;;21.70;99.90;;;;;;5072472;28;20078;-63
2020/12/23 08:46:28;;;;;;;10.43;9.45;;;21.60;99.90;;;;;;5072504;28;20028;-63
2020/12/23 08:48:57;;;;;;;11.18;9.13;;;21.60;99.90;;;;;;5072256;28;20362;-63
2020/12/23 08:51:26;;;;;;;11.07;9.35;;;21.60;99.90;;;;;;5072272;28;20028;-63
2020/12/23 08:53:55;;;;;;;10.68;9.60;;;21.50;99.90;;;;;;5072677;28;20025;-62
2020/12/23 08:56:32;;;;;;;10.75;9.27;;;21.50;99.90;;;;;;5072496;28;20067;-62
2020/12/23 08:59:01;;;;;;;11.88;9.02;;;21.40;99.90;;;;;;5072947;28;20025;-63
2020/12/23 09:01:31;;;;;;;13.55;9.50;;;21.40;99.90;;;;;;5072559;28;20029;-63
2020/12/23 09:04:12;;;;;;;13.07;10.15;;;21.30;99.90;;;;;;5053993;28;20485;-63
2020/12/23 09:06:52;;;;;;;13.80;9.90;;;21.20;99.90;;;;;;5072548;28;20017;-63
2020/12/23 09:09:23;;;;;;;11.15;10.05;;;21.20;99.90;;;;;;5075415;28;20032;-63
2020/12/23 09:11:56;;;;;;;12.23;10.93;;;21.10;99.90;;;;;;5076253;28;20029;-63
2020/12/23 09:14:33;;;;;;;12.20;9.40;;;21.00;99.90;;;;;;5074672;28;20112;-63
2020/12/23 09:17:03;;;;;;;11.07;10.02;;;21.00;99.90;;;;;;5076230;28;20150;-63
2020/12/23 09:20:03;;;;;;;10.98;9.77;;;21.00;99.90;;;;;;5075768;28;20045;-63
2020/12/23 09:22:41;;;;;;;10.80;9.70;;;20.90;99.90;;;;;;5053063;28;20512;-63
2020/12/23 09:25:30;;;;;;;11.82;10.27;;;20.90;99.90;;;;;;5036524;28;20021;-64
2020/12/23 09:28:09;;;;;;;11.60;9.57;;;20.80;99.90;;;;;;5033223;28;20139;-63
2020/12/23 09:30:43;;;;;;;11.80;10.57;;;20.80;99.90;;;;;;5033218;28;20497;-63
2020/12/23 09:33:18;;;;;;;11.05;9.80;;;20.70;99.90;;;;;;5033220;28;20255;-63
2020/12/23 09:35:49;;;;;;;10.85;9.77;;;20.70;99.90;;;;;;5033117;28;20111;-63
2020/12/23 09:38:24;;;;;;;;;;;20.70;99.90;;;;;;5033447;28;20033;-63
2020/12/23 09:40:55;;;;;;;10.85;9.85;;;20.70;99.90;;;;;;5032953;28;19943;-63
2020/12/23 09:43:26;;;;;;;11.10;9.98;;;20.60;99.90;;;;;;5032584;28;20037;-63
2020/12/23 09:45:56;;;;;;;12.05;9.50;;;20.60;99.90;;;;;;5032836;28;20101;-63
2020/12/23 09:48:25;;;;;;;11.85;9.50;;;20.60;99.90;;;;;;4983556;28;20038;-63
2020/12/23 09:50:54;;;;;;;10.98;9.95;;;20.50;99.90;;;;;;5032676;28;20025;-62
2020/12/23 09:53:24;;;;;;;12.82;10.30;;;20.50;99.90;;;;;;5042064;28;20072;-62
2020/12/23 09:55:52;;;;;;;12.52;9.85;;;20.50;99.90;;;;;;5036466;28;20041;-62
2020/12/23 09:58:20;;;;;;;12.98;9.93;;;20.40;99.90;;;;;;5044281;28;20036;-62
2020/12/23 10:00:51;;;;;;;11.32;10.15;;;20.40;99.90;;;;;;5073533;28;20056;-63
2020/12/23 10:03:19;;;;;;;11.18;10.10;;;20.40;99.90;;;;;;5074474;28;20038;-62
2020/12/23 10:05:48;;;;;;;12.85;10.57;;;20.40;99.90;;;;;;5074462;28;20103;-62
2020/12/23 10:08:17;;;;;;;14.50;10.80;;;20.40;99.90;;;;;;5074568;28;20024;-62
2020/12/23 10:10:45;;;;;;;12.75;10.82;;;20.40;99.90;;;;;;5074456;28;20032;-63
2020/12/23 10:13:13;;;;;;;11.45;10.35;;;20.30;99.90;;;;;;5074323;28;20129;-63
2020/12/23 10:15:41;;;;;;;11.40;10.30;;;20.30;99.90;;;;;;5074307;28;20128;-63
2020/12/23 10:18:09;;;;;;;12.13;10.30;;;20.30;99.90;;;;;;5074465;28;20071;-63
2020/12/23 10:20:38;;;;;;;11.88;10.38;;;20.20;99.90;;;;;;5073539;28;20029;-63
2020/12/23 10:23:06;;;;;;;11.13;10.13;;;20.20;99.90;;;;;;5073972;28;20469;-62
2020/12/23 10:25:36;;;;;;;11.23;10.15;;;20.20;99.90;;;;;;5073991;28;20391;-62
2020/12/23 10:28:04;;;;;;;11.25;10.13;;;20.10;99.90;;;;;;5074117;28;20020;-62
2020/12/23 10:30:32;;;;;;;13.68;10.38;;;20.10;99.90;;;;;;5072616;28;20034;-62
2020/12/23 10:33:00;;;;;;;12.27;11.10;;;20.10;99.90;;;;;;5073882;28;20370;-62
2020/12/23 10:35:28;;;;;;;13.77;10.50;;;20.00;99.90;;;;;;5074043;28;20429;-62
2020/12/23 10:37:55;;;;;;;12.13;10.82;;;20.00;99.90;;;;;;5074246;28;20032;-60
2020/12/23 10:40:23;;;;;;;13.57;10.93;;;20.00;99.90;;;;;;5074091;28;20032;-63
2020/12/23 10:42:52;;;;;;;11.63;10.43;;;20.00;99.90;;;;;;5074209;28;20417;-63
2020/12/23 10:45:20;;;;;;;12.90;10.88;;;19.90;99.90;;;;;;5073933;28;20385;-62
2020/12/23 10:47:48;;;;;;;12.50;10.82;;;19.90;99.90;;;;;;5073641;28;20096;-62
2020/12/23 10:50:16;;;;;;;11.65;10.68;;;19.90;99.90;;;;;;5073854;28;20428;-62
2020/12/23 10:52:44;;;;;;;11.88;10.77;;;19.80;99.90;;;;;;5073538;28;20024;-62
2020/12/23 10:55:11;;;;;;;13.93;10.63;;;19.80;99.90;;;;;;5073413;28;20131;-62
2020/12/23 10:57:39;;;;;;;12.00;9.80;;;19.80;99.90;;;;;;5073367;28;20058;-61
2020/12/23 11:00:08;;;;;;;11.40;10.30;;;19.80;99.90;;;;;;5072385;28;20476;-62
2020/12/23 11:02:36;;;;;;;10.95;9.93;;;19.80;99.90;;;;;;5055024;28;20040;-62
2020/12/23 11:05:04;;;;;;;12.02;9.75;;;19.70;99.90;;;;;;5072467;28;20017;-62
2020/12/23 11:07:32;;;;;;;11.02;10.00;;;19.70;99.90;;;;;;5073336;28;20021;-62
2020/12/23 11:10:00;;;;;;;11.48;10.50;;;19.60;99.90;;;;;;5073818;28;20055;-62
2020/12/23 11:12:27;;;;;;;11.32;10.23;;;19.60;99.90;;;;;;5073483;28;20033;-62
2020/12/23 11:14:55;;;;;;;12.48;10.73;;;19.60;99.90;;;;;;5073089;28;20032;-62
2020/12/23 11:17:23;;;;;;;10.93;9.93;;;19.60;99.90;;;;;;5073157;28;20031;-62
2020/12/23 11:19:53;;;;;;;14.18;10.70;;;19.50;99.90;;;;;;5073097;28;20048;-62
2020/12/23 11:22:21;;;;;;;11.85;10.77;;;19.50;99.90;;;;;;5073249;28;20029;-63
2020/12/23 11:24:49;;;;;;;12.05;10.95;;;19.50;99.90;;;;;;5072898;28;20030;-63
2020/12/23 11:27:17;;;;;;;11.35;10.30;;;19.50;99.90;;;;;;5072972;28;20111;-62
2020/12/23 11:29:45;;;;;;;11.80;10.73;;;19.40;99.90;;;;;;5073120;28;20017;-63
2020/12/23 11:32:14;;;;;;;14.20;10.30;;;19.40;99.90;;;;;;5072942;28;20112;-63
2020/12/23 11:34:42;;;;;;;11.27;10.38;;;19.30;99.90;;;;;;5072987;28;20029;-62
2020/12/23 11:37:10;;;;;;;10.68;9.77;;;19.30;99.90;;;;;;5072930;28;20040;-63
2020/12/23 11:39:38;;;;;;;10.88;9.77;;;19.30;99.90;;;;;;5073150;28;20381;-63
2020/12/23 11:42:07;;;;;;;12.05;10.75;;;19.30;99.90;;;;;;5072918;28;20078;-63
2020/12/23 11:44:34;;;;;;;10.75;9.80;;;19.20;99.90;;;;;;5072988;28;20434;-62
2020/12/23 11:47:02;;;;;;;11.18;10.18;;;19.20;99.90;;;;;;5073057;28;20518;-62
2020/12/23 11:49:30;;;;;;;11.13;10.13;;;19.20;99.90;;;;;;5072788;28;20012;-63
2020/12/23 11:51:58;;;;;;;11.25;10.35;;;19.20;99.90;;;;;;5073045;28;20181;-62
2020/12/23 11:54:26;;;;;;;11.25;10.25;;;19.20;99.90;;;;;;5072731;28;20036;-63
2020/12/23 11:56:54;;;;;;;11.60;10.40;;;19.10;99.90;;;;;;5072769;28;20025;-62
2020/12/23 11:59:23;;;;;;;12.85;10.80;;;19.10;99.90;;;;;;5054436;28;20145;-63
2020/12/23 12:01:52;;;;;;;11.10;10.10;;;19.00;99.90;;;;;;5073175;28;20484;-63
2020/12/23 12:04:21;;;;;;;12.13;10.90;;;19.00;99.90;;;;;;5073018;28;20020;-62
2020/12/23 12:06:54;;;;;;;12.13;10.93;;;19.00;99.90;;;;;;5072894;28;20025;-62
2020/12/23 12:09:22;;;;;;;11.52;10.43;;;19.10;99.90;;;;;;5072671;28;20024;-63
2020/12/23 12:11:54;;;;;;;14.88;10.93;;;19.00;99.90;;;;;;5072614;28;20025;-62
2020/12/23 12:14:24;;;;;;;11.13;10.20;;;19.00;99.90;;;;;;5071456;28;20360;-63
2020/12/23 12:16:52;;;;;;;11.10;9.85;;;19.00;99.90;;;;;;5072815;28;20145;-63
2020/12/23 12:19:20;;;;;;;10.55;9.70;;;19.00;99.90;;;;;;5072344;28;20049;-61
2020/12/23 12:21:48;;;;;;;10.35;9.38;;;19.00;99.90;;;;;;5072356;28;20039;-61
2020/12/23 12:24:16;;;;;;;11.02;9.90;;;19.00;99.90;;;;;;5072513;28;20016;-61
2020/12/23 12:26:44;;;;;;;13.73;10.18;;;19.00;99.90;;;;;;5072284;28;20042;-61
2020/12/23 12:29:12;;;;;;;10.23;9.45;;;19.00;99.90;;;;;;5072225;28;20090;-61
2020/12/23 12:31:40;;;;;;;10.23;9.38;;;18.90;99.90;;;;;;5070889;28;20032;-61
2020/12/23 12:34:08;;;;;;;11.07;9.95;;;18.90;99.90;;;;;;5072320;28;20431;-61
2020/12/23 12:36:36;;;;;;;11.30;9.80;;;18.90;99.90;;;;;;5072159;28;20086;-61
2020/12/23 12:39:04;;;;;;;11.10;9.70;;;18.90;99.90;;;;;;5072130;28;20112;-61
2020/12/23 12:41:32;;;;;;;10.88;9.77;;;18.90;99.90;;;;;;5072141;28;20345;-61
2020/12/23 12:44:00;;;;;;;11.00;9.90;;;18.90;99.90;;;;;;5075236;28;20050;-61
2020/12/23 12:46:27;;;;;;;11.43;10.30;;;18.90;99.90;;;;;;5076224;28;20020;-61
2020/12/23 12:48:55;;;;;;;11.38;10.43;;;18.80;99.90;;;;;;5076149;28;20031;-61
2020/12/23 12:51:28;;;;;;;12.00;10.90;;;18.80;99.90;;;;;;5075864;28;20013;-62
2020/12/23 12:53:56;;;;;;;11.32;10.45;;;18.80;99.90;;;;;;5076085;28;20492;-61
2020/12/23 12:56:28;;;;;;;12.52;10.52;;;18.80;99.90;;;;;;5075867;28;20558;-62